createdAt,value
2022-09-22T00:01:33.261Z,11.50
2022-09-22T00:04:03.723Z,11.50
2022-09-22T00:06:36.464Z,11.50
2022-09-22T00:09:05.167Z,11.50
2022-09-22T00:11:38.970Z,11.40
2022-09-22T00:14:16.725Z,11.40
2022-09-22T00:16:57.564Z,11.40
2022-09-22T00:19:35.388Z,11.40
2022-09-22T00:22:04.193Z,11.30
2022-09-22T00:24:32.060Z,11.30
2022-09-22T00:26:59.966Z,11.20
2022-09-22T00:29:29.287Z,11.20
2022-09-22T00:31:56.861Z,11.20
2022-09-22T00:34:26.852Z,11.10
2022-09-22T00:36:54.007Z,11.10
2022-09-22T00:39:21.828Z,11.10
2022-09-22T00:41:51.952Z,11.10
2022-09-22T00:44:44.434Z,11.10
2022-09-22T00:47:39.909Z,11.00
2022-09-22T00:50:24.228Z,11.00
2022-09-22T00:52:59.858Z,11.00
2022-09-22T00:55:50.745Z,11.00
2022-09-22T00:58:23.732Z,11.00
2022-09-22T01:00:50.639Z,10.90
2022-09-22T01:03:25.063Z,10.90
2022-09-22T01:06:01.387Z,10.90
2022-09-22T01:08:29.817Z,10.90
2022-09-22T01:10:57.932Z,10.90
2022-09-22T01:13:45.919Z,10.80
2022-09-22T01:16:37.592Z,10.80
2022-09-22T01:19:40.316Z,10.80
2022-09-22T01:22:50.203Z,10.80
2022-09-22T01:25:40.934Z,10.70
2022-09-22T01:29:07.071Z,10.70
2022-09-22T01:32:11.253Z,10.70
2022-09-22T01:35:02.562Z,10.70
2022-09-22T01:38:07.071Z,10.60
2022-09-22T01:40:57.636Z,10.60
2022-09-22T01:43:57.133Z,10.60
2022-09-22T01:46:57.885Z,10.60
2022-09-22T01:49:26.783Z,10.60
2022-09-22T01:52:00.590Z,10.50
2022-09-22T01:54:41.628Z,10.50
2022-09-22T01:57:21.743Z,10.50
2022-09-22T01:59:55.471Z,10.50
2022-09-22T02:02:34.359Z,10.40
2022-09-22T02:05:06.276Z,10.40
2022-09-22T02:07:38.876Z,10.40
2022-09-22T02:10:10.979Z,10.40
2022-09-22T02:12:38.520Z,10.40
2022-09-22T02:15:26.723Z,10.40
2022-09-22T02:17:57.873Z,10.40
2022-09-22T02:20:26.120Z,10.40
2022-09-22T02:22:54.480Z,10.30
2022-09-22T02:25:24.739Z,10.30
2022-09-22T02:27:55.116Z,10.30
2022-09-22T02:30:23.113Z,10.30
2022-09-22T02:32:52.992Z,10.30
2022-09-22T02:35:20.767Z,10.30
2022-09-22T02:37:56.511Z,10.30
2022-09-22T02:40:31.814Z,10.30
2022-09-22T02:43:24.732Z,10.30
2022-09-22T02:46:05.254Z,10.30
2022-09-22T02:48:42.730Z,10.30
2022-09-22T02:51:09.954Z,10.30
2022-09-22T02:53:37.319Z,10.30
2022-09-22T02:56:04.675Z,10.30
2022-09-22T02:58:31.825Z,10.30
2022-09-22T03:00:58.827Z,10.30
2022-09-22T03:03:25.729Z,10.30
2022-09-22T03:05:52.613Z,10.30
2022-09-22T03:08:19.479Z,10.30
2022-09-22T03:10:46.422Z,10.30
2022-09-22T03:13:17.583Z,10.30
2022-09-22T03:15:46.037Z,10.30
2022-09-22T03:18:13.501Z,10.30
2022-09-22T03:20:40.664Z,10.30
2022-09-22T03:23:07.808Z,10.30
2022-09-22T03:25:34.996Z,10.30
2022-09-22T03:28:02.280Z,10.20
2022-09-22T03:30:29.254Z,10.20
2022-09-22T03:32:56.151Z,10.30
2022-09-22T03:35:23.105Z,10.20
2022-09-22T03:37:50.048Z,10.30
2022-09-22T03:40:17.118Z,10.30
2022-09-22T03:42:44.848Z,10.40
2022-09-22T03:45:12.730Z,10.40
2022-09-22T03:47:39.687Z,10.40
2022-09-22T03:50:07.258Z,10.50
2022-09-22T03:52:34.734Z,10.50
2022-09-22T03:55:03.033Z,10.60
2022-09-22T03:57:30.222Z,10.60
2022-09-22T03:59:57.105Z,10.60
2022-09-22T04:02:24.032Z,10.70
2022-09-22T04:04:50.941Z,10.70
2022-09-22T04:07:17.988Z,10.80
2022-09-22T04:09:44.926Z,10.80
2022-09-22T04:12:11.848Z,10.80
2022-09-22T04:14:38.904Z,10.90
2022-09-22T04:17:05.962Z,10.90
2022-09-22T04:19:35.640Z,10.90
2022-09-22T04:22:03.914Z,11.00
2022-09-22T04:24:30.881Z,11.00
2022-09-22T04:27:18.716Z,11.00
2022-09-22T04:29:44.619Z,11.00
2022-09-22T04:32:11.612Z,11.00
2022-09-22T04:34:38.645Z,11.00
2022-09-22T04:37:05.678Z,11.00
2022-09-22T04:39:32.705Z,11.00
2022-09-22T04:41:59.575Z,11.00
2022-09-22T04:44:26.475Z,10.90
2022-09-22T04:46:53.337Z,10.90
2022-09-22T04:49:20.198Z,10.90
2022-09-22T04:51:47.154Z,10.90
2022-09-22T04:54:14.900Z,10.80
2022-09-22T04:56:44.884Z,10.80
2022-09-22T04:59:11.982Z,10.80
2022-09-22T05:01:39.019Z,10.80
2022-09-22T05:04:05.992Z,10.80
2022-09-22T05:06:32.860Z,10.70
2022-09-22T05:08:59.786Z,10.70
2022-09-22T05:11:26.736Z,10.70
2022-09-22T05:13:53.601Z,10.60
2022-09-22T05:16:20.541Z,10.60
2022-09-22T05:18:50.124Z,10.50
2022-09-22T05:21:18.801Z,10.50
2022-09-22T05:23:46.682Z,10.50
2022-09-22T05:26:13.679Z,10.50
2022-09-22T05:28:40.903Z,10.50
2022-09-22T05:31:07.879Z,10.50
2022-09-22T05:33:34.747Z,10.50
2022-09-22T05:36:01.895Z,10.50
2022-09-22T05:38:28.923Z,10.50
2022-09-22T05:40:55.829Z,10.50
2022-09-22T05:43:22.759Z,10.50
2022-09-22T05:45:49.945Z,10.50
2022-09-22T05:48:16.903Z,10.50
2022-09-22T05:50:45.266Z,10.50
2022-09-22T05:53:13.350Z,10.50
2022-09-22T05:55:41.260Z,10.50
2022-09-22T05:58:13.918Z,10.40
2022-09-22T06:00:41.666Z,10.40
2022-09-22T06:03:08.965Z,10.40
2022-09-22T06:05:39.149Z,10.40
2022-09-22T06:08:07.785Z,10.30
2022-09-22T06:10:37.132Z,10.30
2022-09-22T06:13:07.422Z,10.30
2022-09-22T06:15:36.046Z,10.40
2022-09-22T06:18:07.523Z,10.40
2022-09-22T06:20:35.604Z,10.40
2022-09-22T06:23:02.498Z,10.50
2022-09-22T06:25:29.581Z,10.60
2022-09-22T06:28:05.738Z,10.60
2022-09-22T06:30:40.112Z,10.70
2022-09-22T06:33:11.125Z,10.70
2022-09-22T06:35:40.430Z,10.80
2022-09-22T06:38:09.304Z,10.80
2022-09-22T06:40:36.461Z,10.90
2022-09-22T06:43:15.060Z,11.00
2022-09-22T06:45:44.904Z,11.00
2022-09-22T06:48:12.243Z,11.10
2022-09-22T06:50:40.961Z,11.20
2022-09-22T06:53:13.778Z,11.30
2022-09-22T06:55:43.859Z,11.30
2022-09-22T06:58:12.317Z,11.40
2022-09-22T07:00:41.840Z,11.50
2022-09-22T07:03:26.345Z,11.60
2022-09-22T07:05:57.407Z,11.70
2022-09-22T07:08:25.630Z,11.80
2022-09-22T07:11:11.645Z,11.90
2022-09-22T07:13:42.870Z,12.10
2022-09-22T07:16:16.309Z,12.20
2022-09-22T07:18:46.068Z,12.20
2022-09-22T07:21:16.762Z,12.40
2022-09-22T07:23:44.234Z,12.50
2022-09-22T07:26:17.077Z,12.60
2022-09-22T07:28:46.859Z,12.80
2022-09-22T07:31:15.349Z,12.90
2022-09-22T07:33:44.583Z,13.00
2022-09-22T07:36:19.520Z,13.10
2022-09-22T07:38:52.363Z,13.20
2022-09-22T07:41:22.912Z,13.30
2022-09-22T07:43:52.650Z,13.50
2022-09-22T07:46:20.270Z,13.60
2022-09-22T07:48:47.964Z,13.70
2022-09-22T07:51:20.616Z,13.80
2022-09-22T07:54:07.324Z,13.90
2022-09-22T07:56:43.369Z,14.10
2022-09-22T07:59:15.160Z,14.20
2022-09-22T08:01:44.895Z,14.30
2022-09-22T08:04:16.634Z,14.40
2022-09-22T08:06:49.460Z,14.50
2022-09-22T08:09:18.254Z,14.60
2022-09-22T08:11:48.565Z,14.70
2022-09-22T08:14:17.365Z,14.80
2022-09-22T08:16:44.377Z,14.90
2022-09-22T08:19:13.297Z,15.10
2022-09-22T08:21:48.289Z,15.20
2022-09-22T08:24:22.505Z,15.30
2022-09-22T08:26:52.462Z,15.40
2022-09-22T08:29:20.199Z,15.50
2022-09-22T08:31:47.494Z,15.60
2022-09-22T08:34:16.591Z,15.70
2022-09-22T08:36:46.215Z,15.80
2022-09-22T08:39:13.325Z,15.90
2022-09-22T08:41:55.267Z,16.00
2022-09-22T08:44:29.160Z,16.10
2022-09-22T08:47:01.476Z,16.20
2022-09-22T08:49:58.895Z,16.30
2022-09-22T08:52:54.374Z,16.30
2022-09-22T08:55:26.708Z,16.50
2022-09-22T08:58:35.074Z,16.60
2022-09-22T09:01:42.482Z,16.70
2022-09-22T09:04:44.231Z,16.80
2022-09-22T09:07:41.713Z,16.90
2022-09-22T09:10:53.007Z,17.00
2022-09-22T09:14:01.343Z,17.20
2022-09-22T09:16:50.158Z,17.20
2022-09-22T09:19:42.876Z,17.30
2022-09-22T09:22:25.380Z,17.30
2022-09-22T09:25:24.952Z,17.40
2022-09-22T09:28:01.373Z,17.50
2022-09-22T09:30:41.285Z,17.60
2022-09-22T09:33:40.812Z,17.60
2022-09-22T09:38:54.305Z,17.80
2022-09-22T09:41:31.763Z,17.90
2022-09-22T09:44:00.550Z,17.90
2022-09-22T09:47:19.516Z,18.00
2022-09-22T09:49:52.647Z,18.10
2022-09-22T09:52:20.185Z,18.20
2022-09-22T09:54:47.526Z,18.30
2022-09-22T09:57:17.302Z,18.40
2022-09-22T10:00:32.465Z,18.40
2022-09-22T10:03:43.782Z,18.60
2022-09-22T10:06:11.856Z,18.70
2022-09-22T10:08:46.265Z,18.80
2022-09-22T10:11:15.145Z,18.90
2022-09-22T10:13:43.754Z,19.00
2022-09-22T10:16:28.846Z,19.00
2022-09-22T10:18:58.640Z,19.10
2022-09-22T10:21:28.081Z,19.10
2022-09-22T10:23:58.320Z,19.20
2022-09-22T10:26:29.262Z,19.30
2022-09-22T10:29:18.254Z,19.40
2022-09-22T10:32:16.300Z,19.50
2022-09-22T10:34:50.500Z,19.50
2022-09-22T10:37:25.547Z,19.60
2022-09-22T10:39:57.571Z,19.60
2022-09-22T10:42:45.533Z,19.60
2022-09-22T10:45:15.751Z,19.70
2022-09-22T10:48:03.995Z,19.70
2022-09-22T10:51:02.315Z,19.80
2022-09-22T10:54:09.840Z,19.90
2022-09-22T10:56:46.519Z,19.90
2022-09-22T10:59:41.551Z,20.10
2022-09-22T11:02:48.976Z,20.10
2022-09-22T11:05:43.563Z,20.30
2022-09-22T11:08:35.923Z,20.30
2022-09-22T11:11:51.760Z,20.30
2022-09-22T11:14:56.406Z,20.30
2022-09-22T11:17:54.124Z,20.40
2022-09-22T11:20:40.047Z,20.40
2022-09-22T11:24:12.198Z,20.40
2022-09-22T11:27:01.187Z,20.40
2022-09-22T11:30:10.723Z,20.40
2022-09-22T11:33:15.057Z,20.40
2022-09-22T11:36:15.343Z,20.50
2022-09-22T11:39:00.483Z,20.50
2022-09-22T11:41:58.851Z,20.60
2022-09-22T11:44:56.570Z,20.60
2022-09-22T11:47:42.171Z,20.60
2022-09-22T11:50:30.803Z,20.60
2022-09-22T11:53:26.888Z,20.50
2022-09-22T11:56:14.372Z,20.60
2022-09-22T11:58:44.523Z,20.60
2022-09-22T12:01:19.277Z,20.60
2022-09-22T12:04:14.458Z,20.60
2022-09-22T12:06:44.982Z,20.60
2022-09-22T12:09:35.837Z,20.60
2022-09-22T12:12:05.623Z,20.70
2022-09-22T12:14:33.362Z,20.80
2022-09-22T12:17:29.879Z,20.80
2022-09-22T12:20:42.552Z,21.00
2022-09-22T12:23:47.561Z,21.00
2022-09-22T12:26:31.568Z,21.10
2022-09-22T12:29:13.756Z,21.20
2022-09-22T12:31:44.190Z,21.20
2022-09-22T12:34:30.147Z,21.20
2022-09-22T12:37:09.262Z,21.30
2022-09-22T12:39:44.628Z,21.40
2022-09-22T12:42:35.644Z,21.50
2022-09-22T12:45:28.890Z,21.60
2022-09-22T12:47:57.596Z,21.70
2022-09-22T12:50:24.327Z,21.70
2022-09-22T12:52:51.236Z,21.80
2022-09-22T12:55:28.501Z,21.90
2022-09-22T12:58:01.204Z,21.90
2022-09-22T13:00:41.013Z,22.00
2022-09-22T13:03:26.196Z,22.00
2022-09-22T13:06:21.071Z,22.10
2022-09-22T13:08:54.032Z,22.10
2022-09-22T13:12:11.972Z,22.00
2022-09-22T13:14:57.638Z,22.10
2022-09-22T13:17:44.678Z,22.10
2022-09-22T13:20:32.750Z,22.10
2022-09-22T13:23:12.883Z,22.10
2022-09-22T13:25:42.444Z,22.10
2022-09-22T13:28:09.200Z,22.10
2022-09-22T13:30:38.752Z,22.20
2022-09-22T13:33:06.175Z,22.30
2022-09-22T13:35:39.031Z,22.30
2022-09-22T13:38:07.233Z,22.30
2022-09-22T13:40:34.922Z,22.40
2022-09-22T13:43:08.829Z,22.40
2022-09-22T13:45:38.299Z,22.50
2022-09-22T13:48:14.487Z,22.50
2022-09-22T13:50:55.584Z,22.50
2022-09-22T13:53:22.691Z,22.50
2022-09-22T13:55:51.777Z,22.50
2022-09-22T13:58:36.630Z,22.50
2022-09-22T14:01:20.092Z,22.50
2022-09-22T14:03:50.059Z,22.50
2022-09-22T14:06:22.178Z,22.50
2022-09-22T14:08:52.581Z,22.50
2022-09-22T14:11:24.725Z,22.40
2022-09-22T14:13:59.856Z,22.40
2022-09-22T14:16:55.166Z,22.40
2022-09-22T14:19:29.341Z,22.40
2022-09-22T14:21:59.256Z,22.40
2022-09-22T14:24:27.531Z,22.40
2022-09-22T14:27:03.797Z,22.40
2022-09-22T14:29:34.777Z,22.30
2022-09-22T14:32:39.870Z,22.30
2022-09-22T14:35:18.237Z,22.30
2022-09-22T14:37:50.744Z,22.30
2022-09-22T14:40:24.309Z,22.30
2022-09-22T14:43:09.315Z,22.20
2022-09-22T14:45:37.247Z,22.20
2022-09-22T14:48:12.949Z,22.20
2022-09-22T14:51:06.080Z,22.20
2022-09-22T14:53:41.011Z,22.20
2022-09-22T14:56:29.502Z,22.10
2022-09-22T14:59:01.922Z,22.20
2022-09-22T15:01:51.226Z,22.20
2022-09-22T15:04:23.238Z,22.10
2022-09-22T15:06:56.584Z,22.10
2022-09-22T15:09:29.222Z,22.10
2022-09-22T15:12:03.440Z,22.00
2022-09-22T15:14:44.214Z,22.00
2022-09-22T15:17:58.187Z,21.90
2022-09-22T15:20:38.633Z,21.90
2022-09-22T15:23:18.394Z,21.80
2022-09-22T15:25:46.484Z,21.70
2022-09-22T15:28:17.530Z,21.70
2022-09-22T15:30:48.501Z,21.60
2022-09-22T15:33:16.426Z,21.60
2022-09-22T15:35:46.860Z,21.50
2022-09-22T15:38:24.053Z,21.40
2022-09-22T15:40:51.421Z,21.30
2022-09-22T15:43:20.719Z,21.20
2022-09-22T15:45:56.722Z,21.10
2022-09-22T15:48:39.465Z,21.00
2022-09-22T15:51:13.876Z,20.90
2022-09-22T15:53:41.820Z,20.90
2022-09-22T15:56:19.016Z,20.70
2022-09-22T15:58:46.607Z,20.60
2022-09-22T16:01:18.026Z,20.50
2022-09-22T16:03:45.944Z,20.40
2022-09-22T16:06:16.673Z,20.40
2022-09-22T16:08:48.080Z,20.30
2022-09-22T16:11:29.525Z,20.20
2022-09-22T16:14:03.518Z,20.20
2022-09-22T16:16:33.059Z,20.20
2022-09-22T16:19:00.590Z,20.10
2022-09-22T16:21:37.127Z,20.10
2022-09-22T16:24:08.251Z,20.00
2022-09-22T16:26:38.187Z,20.00
2022-09-22T16:29:06.785Z,20.00
2022-09-22T16:31:33.953Z,19.90
2022-09-22T16:34:03.367Z,19.90
2022-09-22T16:36:33.433Z,19.80
2022-09-22T16:39:04.087Z,19.80
2022-09-22T16:41:33.385Z,19.80
2022-09-22T16:44:01.695Z,19.70
2022-09-22T16:46:30.590Z,19.70
2022-09-22T16:49:16.155Z,19.60
2022-09-22T16:51:47.451Z,19.60
2022-09-22T16:54:14.607Z,19.50
2022-09-22T16:56:47.197Z,19.40
2022-09-22T16:59:22.494Z,19.40
2022-09-22T17:01:50.313Z,19.40
2022-09-22T17:04:21.413Z,19.20
2022-09-22T17:06:49.229Z,19.20
2022-09-22T17:09:17.615Z,19.10
2022-09-22T17:11:48.065Z,19.00
2022-09-22T17:14:18.346Z,18.90
2022-09-22T17:16:49.750Z,18.90
2022-09-22T17:19:20.475Z,18.80
2022-09-22T17:21:50.940Z,18.70
2022-09-22T17:24:19.326Z,18.60
2022-09-22T17:26:50.232Z,18.50
2022-09-22T17:29:23.350Z,18.40
2022-09-22T17:31:51.476Z,18.30
2022-09-22T17:34:18.631Z,18.20
2022-09-22T17:36:45.563Z,18.10
2022-09-22T17:39:12.621Z,18.10
2022-09-22T17:41:46.876Z,18.00
2022-09-22T17:44:19.598Z,18.00
2022-09-22T17:47:06.255Z,17.80
2022-09-22T17:49:51.919Z,17.80
2022-09-22T17:52:37.586Z,17.70
2022-09-22T17:55:20.259Z,17.60
2022-09-22T17:57:47.494Z,17.60
2022-09-22T18:00:21.096Z,17.50
2022-09-22T18:02:50.504Z,17.80
2022-09-22T18:05:21.851Z,17.40
2022-09-22T18:07:53.550Z,17.30
2022-09-22T18:10:20.803Z,17.20
2022-09-22T18:12:47.683Z,17.10
2022-09-22T18:15:17.155Z,17.10
2022-09-22T18:17:44.751Z,17.00
2022-09-22T18:20:15.657Z,16.90
2022-09-22T18:22:47.797Z,16.90
2022-09-22T18:25:19.403Z,16.80
2022-09-22T18:27:48.354Z,16.70
2022-09-22T18:30:19.265Z,16.60
2022-09-22T18:32:49.862Z,16.60
2022-09-22T18:35:17.186Z,16.50
2022-09-22T18:37:44.118Z,16.40
2022-09-22T18:40:12.456Z,16.40
2022-09-22T18:42:39.701Z,16.30
2022-09-22T18:45:07.251Z,16.20
2022-09-22T18:47:41.854Z,16.10
2022-09-22T18:50:10.088Z,16.00
2022-09-22T18:52:37.334Z,16.00
2022-09-22T18:55:04.882Z,15.90
2022-09-22T18:57:31.750Z,15.80
2022-09-22T19:00:00.241Z,15.70
2022-09-22T19:02:27.566Z,15.70
2022-09-22T19:04:54.610Z,15.60
2022-09-22T19:07:44.056Z,15.60
2022-09-22T19:10:20.407Z,15.50
2022-09-22T19:12:48.156Z,15.40
2022-09-22T19:15:18.961Z,15.30
2022-09-22T19:17:49.251Z,15.20
2022-09-22T19:20:24.936Z,15.20
2022-09-22T19:22:52.925Z,15.10
2022-09-22T19:25:21.761Z,15.00
2022-09-22T19:27:50.131Z,15.00
2022-09-22T19:30:21.799Z,14.90
2022-09-22T19:32:50.014Z,14.90
2022-09-22T19:35:16.898Z,14.80
2022-09-22T19:37:44.825Z,14.70
2022-09-22T19:40:18.772Z,14.60
2022-09-22T19:42:47.018Z,14.60
2022-09-22T19:45:14.554Z,14.50
2022-09-22T19:47:41.615Z,14.40
2022-09-22T19:50:09.111Z,14.30
2022-09-22T19:52:37.708Z,14.30
2022-09-22T19:55:11.381Z,14.20
2022-09-22T19:57:41.537Z,14.20
2022-09-22T20:00:25.558Z,14.10
2022-09-22T20:03:00.834Z,14.00
2022-09-22T20:05:36.781Z,14.00
2022-09-22T20:08:15.603Z,14.00
2022-09-22T20:10:44.332Z,14.00
2022-09-22T20:13:30.461Z,14.00
2022-09-22T20:15:58.768Z,13.90
2022-09-22T20:18:26.247Z,13.90
2022-09-22T20:20:54.400Z,13.80
2022-09-22T20:23:22.826Z,13.80
2022-09-22T20:25:51.227Z,13.70
2022-09-22T20:28:18.638Z,13.70
2022-09-22T20:30:45.672Z,13.70
2022-09-22T20:33:24.174Z,13.60
2022-09-22T20:35:55.356Z,13.60
2022-09-22T20:38:22.232Z,13.50
2022-09-22T20:40:49.673Z,13.50
2022-09-22T20:43:16.603Z,13.50
2022-09-22T20:45:44.214Z,13.40
2022-09-22T20:48:18.877Z,13.40
2022-09-22T20:50:55.382Z,13.40
2022-09-22T20:53:22.420Z,13.30
2022-09-22T20:56:01.184Z,13.30
2022-09-22T20:58:32.256Z,13.20
2022-09-22T21:01:00.679Z,13.20
2022-09-22T21:03:28.782Z,13.10
2022-09-22T21:06:00.503Z,13.10
2022-09-22T21:08:46.753Z,13.00
2022-09-22T21:11:16.044Z,13.00
2022-09-22T21:13:43.507Z,12.90
2022-09-22T21:16:13.710Z,12.90
2022-09-22T21:18:40.868Z,12.90
2022-09-22T21:21:08.610Z,12.90
2022-09-22T21:23:35.494Z,12.90
2022-09-22T21:26:07.740Z,12.80
2022-09-22T21:28:34.619Z,12.80
2022-09-22T21:31:07.311Z,12.80
2022-09-22T21:33:35.808Z,12.80
2022-09-22T21:36:13.667Z,12.80
2022-09-22T21:38:49.380Z,12.70
2022-09-22T21:41:21.937Z,12.70
2022-09-22T21:43:50.556Z,12.70
2022-09-22T21:46:24.908Z,12.70
2022-09-22T21:48:58.653Z,12.70
2022-09-22T21:51:26.017Z,12.60
2022-09-22T21:53:54.447Z,12.60
2022-09-22T21:56:24.855Z,12.60
2022-09-22T21:58:54.204Z,12.50
2022-09-22T22:01:27.721Z,12.50
2022-09-22T22:03:57.571Z,12.50
2022-09-22T22:06:35.585Z,12.40
2022-09-22T22:09:20.770Z,12.40
2022-09-22T22:11:49.633Z,12.40
2022-09-22T22:14:19.417Z,12.40
2022-09-22T22:16:52.712Z,12.30
2022-09-22T22:19:22.501Z,12.30
2022-09-22T22:21:50.986Z,12.30
2022-09-22T22:24:42.341Z,12.20
2022-09-22T22:27:11.024Z,12.20
2022-09-22T22:29:38.866Z,12.10
2022-09-22T22:32:09.267Z,12.10
2022-09-22T22:34:36.461Z,12.00
2022-09-22T22:37:04.713Z,12.00
2022-09-22T22:39:32.534Z,12.00
2022-09-22T22:41:59.442Z,12.00
2022-09-22T22:44:26.317Z,12.00
2022-09-22T22:46:53.218Z,12.00
2022-09-22T22:49:20.253Z,11.90
2022-09-22T22:51:49.138Z,11.90
2022-09-22T22:54:16.141Z,11.90
2022-09-22T22:56:45.059Z,11.90
2022-09-22T22:59:14.856Z,11.80
2022-09-22T23:01:44.171Z,11.90
2022-09-22T23:04:11.629Z,11.80
2022-09-22T23:06:43.749Z,11.80
2022-09-22T23:09:14.971Z,11.80
2022-09-22T23:11:42.985Z,11.80
2022-09-22T23:14:11.959Z,11.70
2022-09-22T23:16:45.533Z,11.70
2022-09-22T23:19:15.841Z,11.70
2022-09-22T23:21:42.843Z,11.70
2022-09-22T23:24:09.792Z,11.70
2022-09-22T23:26:37.504Z,11.60
2022-09-22T23:29:06.020Z,11.60
2022-09-22T23:31:33.294Z,11.60
2022-09-22T23:34:00.263Z,11.60
2022-09-22T23:36:28.874Z,11.50
2022-09-22T23:38:58.351Z,11.50
2022-09-22T23:41:25.403Z,11.50
2022-09-22T23:43:52.284Z,11.50
2022-09-22T23:46:20.818Z,11.50
2022-09-22T23:48:48.067Z,11.40
2022-09-22T23:51:15.348Z,11.40
2022-09-22T23:53:42.568Z,11.40
2022-09-22T23:56:09.726Z,11.30
2022-09-22T23:58:38.040Z,11.30
